createdAt,value
2022-09-21T03:01:41.244Z,4.90
2022-09-21T03:04:08.595Z,4.80
2022-09-21T03:06:35.877Z,4.90
2022-09-21T03:09:03.352Z,4.90
2022-09-21T03:11:30.633Z,4.70
2022-09-21T03:13:57.843Z,4.70
2022-09-21T03:16:25.440Z,4.70
2022-09-21T03:18:52.727Z,4.70
2022-09-21T03:21:19.948Z,4.70
2022-09-21T03:23:47.055Z,4.80
2022-09-21T03:26:14.227Z,4.80
2022-09-21T03:28:41.420Z,4.80
2022-09-21T03:31:09.002Z,4.90
2022-09-21T03:33:36.452Z,4.90
2022-09-21T03:36:04.164Z,4.90
2022-09-21T03:38:31.375Z,4.80
2022-09-21T03:40:58.508Z,4.80
2022-09-21T03:43:25.983Z,4.80
2022-09-21T03:45:53.679Z,4.80
2022-09-21T03:48:22.189Z,4.90
2022-09-21T03:50:49.469Z,4.90
2022-09-21T03:53:17.272Z,4.90
2022-09-21T03:58:12.000Z,4.90
2022-09-21T04:00:39.289Z,4.90
2022-09-21T04:03:06.642Z,4.90
2022-09-21T04:05:33.837Z,4.80
2022-09-21T04:08:02.451Z,4.70
2022-09-21T04:10:33.185Z,4.60
2022-09-21T04:13:02.044Z,4.60
2022-09-21T04:15:29.993Z,4.50
2022-09-21T04:17:57.842Z,4.50
2022-09-21T04:20:25.325Z,4.40
2022-09-21T04:22:55.346Z,4.50
2022-09-21T04:25:22.527Z,4.50
2022-09-21T04:27:49.773Z,4.60
2022-09-21T04:30:17.308Z,4.60
2022-09-21T04:32:44.625Z,4.70
2022-09-21T04:35:11.813Z,4.80
2022-09-21T04:37:39.013Z,4.70
2022-09-21T04:40:07.552Z,4.80
2022-09-21T04:42:34.809Z,4.70
2022-09-21T04:45:02.031Z,4.60
2022-09-21T04:47:31.931Z,4.50
2022-09-21T04:49:59.055Z,4.50
2022-09-21T04:52:26.379Z,4.40
2022-09-21T04:54:53.549Z,4.40
2022-09-21T04:57:20.940Z,4.40
2022-09-21T04:59:48.149Z,4.40
2022-09-21T05:02:15.339Z,4.40
2022-09-21T05:04:42.484Z,4.20
2022-09-21T05:07:09.663Z,4.20
2022-09-21T05:09:55.467Z,4.20
2022-09-21T05:12:22.718Z,4.20
2022-09-21T05:14:49.867Z,4.30
2022-09-21T05:17:17.362Z,4.20
2022-09-21T05:19:44.480Z,4.10
2022-09-21T05:22:11.620Z,4.20
2022-09-21T05:24:38.722Z,4.20
2022-09-21T05:27:06.041Z,4.30
2022-09-21T05:29:33.576Z,4.30
2022-09-21T05:32:26.998Z,4.40
2022-09-21T05:35:17.650Z,4.40
2022-09-21T05:38:04.206Z,4.40
2022-09-21T05:40:31.903Z,4.50
2022-09-21T05:42:59.869Z,4.60
2022-09-21T05:45:28.828Z,4.70
2022-09-21T05:48:11.155Z,4.80
2022-09-21T05:50:41.978Z,4.90
2022-09-21T05:53:33.219Z,5.00
2022-09-21T05:56:06.987Z,5.10
2022-09-21T05:59:03.956Z,5.20
2022-09-21T06:02:13.207Z,5.30
2022-09-21T06:04:40.661Z,5.50
2022-09-21T06:07:07.823Z,5.50
2022-09-21T06:09:34.947Z,5.60
2022-09-21T06:12:02.362Z,5.50
2022-09-21T06:14:29.502Z,5.30
2022-09-21T06:16:56.667Z,5.40
2022-09-21T06:19:23.899Z,5.50
2022-09-21T06:21:51.045Z,5.40
2022-09-21T06:24:18.195Z,5.00
2022-09-21T06:26:45.352Z,5.10
2022-09-21T06:29:12.520Z,5.20
2022-09-21T06:31:39.648Z,5.60
2022-09-21T06:34:06.883Z,6.20
2022-09-21T06:36:34.101Z,7.20
2022-09-21T06:39:01.258Z,7.50
2022-09-21T06:41:28.382Z,8.40
2022-09-21T06:43:57.156Z,9.30
2022-09-21T06:46:24.475Z,10.00
2022-09-21T06:48:51.672Z,10.80
2022-09-21T06:51:20.858Z,11.50
2022-09-21T06:53:48.604Z,12.20
2022-09-21T06:56:16.359Z,12.80
2022-09-21T06:58:43.765Z,12.60
2022-09-21T07:01:12.514Z,12.70
2022-09-21T07:03:41.345Z,13.70
2022-09-21T07:06:11.708Z,13.90
2022-09-21T07:11:27.523Z,14.40
2022-09-21T07:13:56.147Z,14.50
2022-09-21T07:16:24.222Z,14.00
2022-09-21T07:18:51.467Z,13.70
2022-09-21T07:21:18.648Z,13.30
2022-09-21T07:23:45.792Z,13.40
2022-09-21T07:26:15.436Z,13.80
2022-09-21T07:28:42.845Z,14.10
2022-09-21T07:31:15.200Z,14.60
2022-09-21T07:33:43.582Z,15.10
2022-09-21T07:36:12.797Z,16.00
2022-09-21T07:38:42.479Z,16.60
2022-09-21T07:41:11.943Z,17.20
2022-09-21T07:43:40.174Z,17.50
2022-09-21T07:46:09.282Z,17.90
2022-09-21T07:48:37.254Z,18.40
2022-09-21T07:51:06.268Z,18.60
2022-09-21T07:53:34.727Z,18.40
2022-09-21T07:56:10.415Z,19.20
2022-09-21T07:58:56.905Z,19.90
2022-09-21T08:01:26.103Z,20.00
2022-09-21T08:03:55.278Z,19.90
2022-09-21T08:06:23.702Z,20.30
2022-09-21T08:08:55.247Z,20.90
2022-09-21T08:11:25.905Z,20.80
2022-09-21T08:13:55.094Z,21.10
2022-09-21T08:16:22.817Z,21.10
2022-09-21T08:18:51.384Z,20.40
2022-09-21T08:21:20.299Z,19.80
2022-09-21T08:23:49.214Z,19.20
2022-09-21T08:26:19.446Z,18.60
2022-09-21T08:28:51.430Z,18.00
2022-09-21T08:31:21.520Z,18.20
2022-09-21T08:33:49.846Z,18.10
2022-09-21T08:36:18.621Z,18.20
2022-09-21T08:38:46.473Z,18.30
2022-09-21T08:41:21.518Z,18.00
2022-09-21T08:43:58.659Z,18.00
2022-09-21T08:46:30.625Z,18.00
2022-09-21T08:49:04.784Z,17.30
2022-09-21T08:51:36.495Z,16.70
2022-09-21T08:54:37.624Z,15.90
2022-09-21T08:57:06.072Z,15.10
2022-09-21T08:59:35.126Z,14.60
2022-09-21T09:02:21.109Z,14.70
2022-09-21T09:05:12.898Z,14.50
2022-09-21T09:07:43.003Z,14.60
2022-09-21T09:10:34.729Z,14.50
2022-09-21T09:13:16.893Z,14.50
2022-09-21T09:15:44.125Z,14.70
2022-09-21T09:18:59.294Z,14.80
2022-09-21T09:21:34.577Z,14.80
2022-09-21T09:24:12.588Z,14.70
2022-09-21T09:27:04.065Z,14.60
2022-09-21T09:30:06.048Z,14.60
2022-09-21T09:33:11.803Z,14.50
2022-09-21T09:36:04.016Z,14.30
2022-09-21T09:38:34.215Z,14.30
2022-09-21T09:41:38.376Z,14.30
2022-09-21T09:44:38.872Z,14.30
2022-09-21T09:47:32.319Z,14.20
2022-09-21T09:50:11.063Z,14.20
2022-09-21T09:52:41.109Z,14.10
2022-09-21T09:55:31.801Z,14.20
2022-09-21T09:57:59.217Z,14.30
2022-09-21T10:00:26.374Z,14.30
2022-09-21T10:02:56.008Z,14.50
2022-09-21T10:05:25.595Z,14.50
2022-09-21T10:07:54.147Z,14.60
2022-09-21T10:10:32.834Z,14.70
2022-09-21T10:13:09.816Z,14.60
2022-09-21T10:15:43.155Z,14.60
2022-09-21T10:18:17.791Z,14.20
2022-09-21T10:20:59.814Z,14.30
2022-09-21T10:23:28.585Z,14.30
2022-09-21T10:26:10.450Z,14.40
2022-09-21T10:29:01.917Z,14.40
2022-09-21T10:31:30.819Z,14.40
2022-09-21T10:34:04.114Z,14.40
2022-09-21T10:36:36.644Z,14.40
2022-09-21T10:39:23.995Z,14.40
2022-09-21T10:41:53.207Z,14.30
2022-09-21T10:44:25.709Z,14.40
2022-09-21T10:46:53.763Z,14.40
2022-09-21T10:49:27.789Z,14.40
2022-09-21T10:51:58.160Z,14.50
2022-09-21T10:54:29.350Z,14.60
2022-09-21T10:57:04.326Z,14.70
2022-09-21T10:59:33.615Z,14.60
2022-09-21T11:02:02.476Z,14.60
2022-09-21T11:04:48.409Z,14.60
2022-09-21T11:07:20.815Z,14.60
2022-09-21T11:09:58.644Z,14.70
2022-09-21T11:12:53.462Z,14.80
2022-09-21T11:15:35.225Z,14.90
2022-09-21T11:18:26.529Z,14.80
2022-09-21T11:21:01.670Z,14.80
2022-09-21T11:23:56.427Z,14.80
2022-09-21T11:27:04.015Z,14.90
2022-09-21T11:29:47.832Z,14.90
2022-09-21T11:32:22.889Z,14.80
2022-09-21T11:35:08.852Z,14.80
2022-09-21T11:37:51.276Z,14.80
2022-09-21T11:40:30.537Z,14.90
2022-09-21T11:43:22.235Z,14.90
2022-09-21T11:45:57.448Z,15.00
2022-09-21T11:48:30.512Z,15.00
2022-09-21T11:51:00.843Z,14.90
2022-09-21T11:53:40.341Z,15.00
2022-09-21T11:56:31.751Z,15.00
2022-09-21T11:59:16.119Z,14.90
2022-09-21T12:02:02.048Z,15.10
2022-09-21T12:04:49.544Z,15.20
2022-09-21T12:07:32.779Z,15.20
2022-09-21T12:10:10.373Z,15.20
2022-09-21T12:12:49.546Z,15.20
2022-09-21T12:15:30.421Z,15.20
2022-09-21T12:18:28.471Z,15.30
2022-09-21T12:21:21.987Z,15.20
2022-09-21T12:23:56.589Z,15.40
2022-09-21T12:26:29.667Z,15.40
2022-09-21T12:29:01.698Z,15.40
2022-09-21T12:31:42.353Z,15.20
2022-09-21T12:34:19.830Z,15.30
2022-09-21T12:36:54.542Z,15.30
2022-09-21T12:39:31.206Z,15.40
2022-09-21T12:42:11.126Z,15.40
2022-09-21T12:44:55.866Z,15.50
2022-09-21T12:47:48.349Z,15.30
2022-09-21T12:50:44.390Z,15.20
2022-09-21T12:53:20.975Z,15.30
2022-09-21T12:55:51.228Z,15.30
2022-09-21T12:59:01.955Z,15.10
2022-09-21T13:01:46.581Z,15.30
2022-09-21T13:04:31.656Z,15.30
2022-09-21T13:07:08.017Z,15.40
2022-09-21T13:09:42.787Z,15.30
2022-09-21T13:12:44.207Z,15.40
2022-09-21T13:15:32.264Z,15.30
2022-09-21T13:18:05.703Z,15.40
2022-09-21T13:20:39.965Z,15.50
2022-09-21T13:23:20.570Z,15.50
2022-09-21T13:25:50.403Z,15.60
2022-09-21T13:28:24.185Z,15.50
2022-09-21T13:31:09.906Z,15.50
2022-09-21T13:34:19.776Z,15.60
2022-09-21T13:37:15.781Z,15.60
2022-09-21T13:39:57.795Z,15.60
2022-09-21T13:42:34.386Z,15.70
2022-09-21T13:45:26.576Z,15.70
2022-09-21T13:48:00.078Z,15.70
2022-09-21T13:50:42.568Z,15.70
2022-09-21T13:53:26.940Z,15.80
2022-09-21T13:56:00.771Z,15.80
2022-09-21T13:58:33.928Z,15.70
2022-09-21T14:01:04.853Z,15.80
2022-09-21T14:03:48.264Z,15.70
2022-09-21T14:06:32.543Z,15.80
2022-09-21T14:09:09.133Z,15.80
2022-09-21T14:11:42.608Z,15.80
2022-09-21T14:14:19.208Z,15.90
2022-09-21T14:16:58.051Z,15.90
2022-09-21T14:19:29.694Z,15.90
2022-09-21T14:22:06.257Z,15.90
2022-09-21T14:24:42.060Z,15.80
2022-09-21T14:27:30.523Z,15.80
2022-09-21T14:30:16.620Z,16.00
2022-09-21T14:33:07.454Z,16.00
2022-09-21T14:35:39.329Z,15.80
2022-09-21T14:38:18.478Z,15.90
2022-09-21T14:40:54.862Z,15.60
2022-09-21T14:43:28.080Z,15.60
2022-09-21T14:46:23.340Z,15.40
2022-09-21T14:49:19.385Z,15.40
2022-09-21T14:52:20.173Z,15.50
2022-09-21T14:54:52.552Z,15.60
2022-09-21T14:57:45.880Z,15.50
2022-09-21T15:00:26.270Z,15.50
2022-09-21T15:03:18.877Z,15.80
2022-09-21T15:05:58.788Z,15.70
2022-09-21T15:09:07.566Z,15.80
2022-09-21T15:11:43.747Z,15.80
2022-09-21T15:14:24.499Z,15.80
2022-09-21T15:16:51.846Z,15.70
2022-09-21T15:19:19.049Z,15.70
2022-09-21T15:21:51.862Z,15.60
2022-09-21T15:24:24.979Z,15.60
2022-09-21T15:26:55.751Z,15.60
2022-09-21T15:29:31.548Z,15.50
2022-09-21T15:32:00.704Z,15.50
2022-09-21T15:34:28.360Z,15.40
2022-09-21T15:37:07.069Z,15.30
2022-09-21T15:39:35.014Z,15.40
2022-09-21T15:42:08.323Z,15.40
2022-09-21T15:44:37.454Z,14.80
2022-09-21T15:47:09.283Z,14.60
2022-09-21T15:49:37.990Z,14.40
2022-09-21T15:52:32.010Z,14.60
2022-09-21T15:55:09.451Z,14.70
2022-09-21T15:57:42.952Z,14.90
2022-09-21T16:00:16.041Z,14.70
2022-09-21T16:03:04.417Z,14.40
2022-09-21T16:05:55.637Z,14.50
2022-09-21T16:08:35.115Z,14.50
2022-09-21T16:11:14.168Z,14.20
2022-09-21T16:14:02.033Z,14.10
2022-09-21T16:16:29.666Z,14.20
2022-09-21T16:19:00.063Z,14.20
2022-09-21T16:21:32.731Z,14.20
2022-09-21T16:24:18.843Z,14.00
2022-09-21T16:26:58.233Z,14.00
2022-09-21T16:29:36.693Z,14.20
2022-09-21T16:32:35.992Z,14.00
2022-09-21T16:35:31.538Z,13.60
2022-09-21T16:37:59.232Z,13.60
2022-09-21T16:40:28.076Z,13.70
2022-09-21T16:42:56.406Z,13.50
2022-09-21T16:45:28.694Z,13.60
2022-09-21T16:47:57.591Z,13.70
2022-09-21T16:50:25.000Z,13.70
2022-09-21T16:52:52.451Z,13.50
2022-09-21T16:55:22.448Z,13.60
2022-09-21T16:57:51.580Z,13.60
2022-09-21T17:00:22.213Z,13.40
2022-09-21T17:02:49.750Z,13.50
2022-09-21T17:05:19.345Z,13.30
2022-09-21T17:07:53.894Z,13.10
2022-09-21T17:10:29.171Z,13.10
2022-09-21T17:12:56.776Z,13.00
2022-09-21T17:15:25.457Z,12.80
2022-09-21T17:17:52.613Z,12.80
2022-09-21T17:20:28.969Z,12.90
2022-09-21T17:22:56.255Z,12.80
2022-09-21T17:25:23.456Z,12.90
2022-09-21T17:27:52.738Z,13.00
2022-09-21T17:30:21.365Z,13.00
2022-09-21T17:32:49.177Z,12.90
2022-09-21T17:35:31.364Z,12.70
2022-09-21T17:37:59.184Z,12.60
2022-09-21T17:40:27.297Z,12.60
2022-09-21T17:43:05.073Z,12.60
2022-09-21T17:45:43.166Z,12.50
2022-09-21T17:48:18.061Z,12.40
2022-09-21T17:50:45.387Z,12.50
2022-09-21T17:53:31.981Z,12.50
2022-09-21T17:56:04.516Z,12.50
2022-09-21T17:58:31.745Z,12.40
2022-09-21T18:01:04.802Z,12.40
2022-09-21T18:03:35.974Z,12.30
2022-09-21T18:06:03.878Z,12.30
2022-09-21T18:08:33.874Z,12.30
2022-09-21T18:11:25.741Z,12.00
2022-09-21T18:14:03.861Z,11.90
2022-09-21T18:16:52.234Z,11.90
2022-09-21T18:19:24.792Z,11.80
2022-09-21T18:21:58.933Z,11.80
2022-09-21T18:24:31.093Z,11.80
2022-09-21T18:27:00.121Z,11.80
2022-09-21T18:29:40.872Z,11.70
2022-09-21T18:32:42.654Z,11.70
2022-09-21T18:35:34.890Z,11.50
2022-09-21T18:38:56.253Z,11.30
2022-09-21T18:41:46.175Z,11.40
2022-09-21T18:44:25.719Z,11.40
2022-09-21T18:47:06.183Z,11.30
2022-09-21T18:49:58.927Z,11.20
2022-09-21T18:53:01.004Z,11.10
2022-09-21T18:55:32.798Z,11.10
2022-09-21T18:58:00.793Z,11.10
2022-09-21T19:00:35.616Z,11.00
2022-09-21T19:03:19.214Z,10.70
2022-09-21T19:06:04.397Z,10.80
2022-09-21T19:08:38.664Z,10.90
2022-09-21T19:11:19.539Z,10.90
2022-09-21T19:14:06.926Z,10.80
2022-09-21T19:16:42.153Z,10.70
2022-09-21T19:19:15.675Z,10.70
2022-09-21T19:21:52.179Z,10.60
2022-09-21T19:24:32.010Z,10.50
2022-09-21T19:27:19.975Z,10.50
2022-09-21T19:29:58.961Z,10.60
2022-09-21T19:32:46.530Z,10.70
2022-09-21T19:35:23.014Z,10.30
2022-09-21T19:37:52.104Z,10.30
2022-09-21T19:40:23.405Z,10.30
2022-09-21T19:43:20.733Z,10.30
2022-09-21T19:46:06.630Z,10.30
2022-09-21T19:48:43.675Z,10.30
2022-09-21T19:51:18.296Z,10.10
2022-09-21T19:54:09.350Z,9.90
2022-09-21T19:57:08.292Z,10.10
2022-09-21T19:59:44.464Z,10.10
2022-09-21T20:02:23.566Z,10.00
2022-09-21T20:04:58.313Z,10.10
2022-09-21T20:07:55.104Z,10.30
2022-09-21T20:10:45.485Z,10.20
2022-09-21T20:13:51.250Z,9.90
2022-09-21T20:16:36.785Z,9.80
2022-09-21T20:19:20.683Z,9.60
2022-09-21T20:21:56.885Z,9.60
2022-09-21T20:24:45.534Z,9.60
2022-09-21T20:27:25.286Z,9.50
2022-09-21T20:29:52.457Z,9.40
2022-09-21T20:32:21.419Z,9.20
2022-09-21T20:34:50.022Z,9.30
2022-09-21T20:37:17.331Z,9.30
2022-09-21T20:39:44.757Z,9.40
2022-09-21T20:42:23.396Z,9.20
2022-09-21T20:44:53.867Z,9.20
2022-09-21T20:47:21.295Z,9.30
2022-09-21T20:49:49.185Z,9.20
2022-09-21T20:52:17.352Z,9.30
2022-09-21T20:54:49.066Z,9.10
2022-09-21T20:57:20.231Z,8.90
2022-09-21T20:59:48.158Z,9.10
